createdAt,value
2023-02-28T00:01:53.581Z,72.75
2023-02-28T00:04:38.968Z,72.72
2023-02-28T00:07:24.662Z,72.64
2023-02-28T00:10:13.054Z,72.07
2023-02-28T00:13:07.319Z,72.53
2023-02-28T00:16:28.008Z,72.95
2023-02-28T00:19:13.276Z,73.79
2023-02-28T00:21:58.381Z,74.05
2023-02-28T00:24:44.060Z,74.37
2023-02-28T00:27:29.378Z,74.38
2023-02-28T00:30:17.888Z,74.19
2023-02-28T00:33:03.516Z,73.61
2023-02-28T00:35:48.663Z,73.52
2023-02-28T00:38:34.534Z,73.37
2023-02-28T00:41:21.164Z,73.39
2023-02-28T00:44:06.257Z,74.00
2023-02-28T00:46:51.579Z,73.08
2023-02-28T00:49:36.973Z,73.67
2023-02-28T00:52:23.164Z,73.24
2023-02-28T00:55:08.827Z,72.48
2023-02-28T00:57:54.375Z,72.87
2023-02-28T01:00:39.602Z,73.38
2023-02-28T01:03:25.063Z,72.44
2023-02-28T01:06:10.635Z,73.11
2023-02-28T01:08:57.410Z,72.55
2023-02-28T01:11:42.877Z,72.07
2023-02-28T01:14:29.098Z,72.18
2023-02-28T01:17:14.319Z,71.78
2023-02-28T01:20:00.056Z,71.07
2023-02-28T01:22:45.410Z,70.97
2023-02-28T01:25:30.759Z,70.51
2023-02-28T01:28:16.359Z,70.42
2023-02-28T01:31:02.288Z,70.63
2023-02-28T01:33:47.864Z,70.46
2023-02-28T01:36:33.437Z,70.69
2023-02-28T01:39:18.600Z,70.54
2023-02-28T01:42:04.045Z,69.74
2023-02-28T01:45:26.318Z,69.22
2023-02-28T01:48:12.393Z,69.24
2023-02-28T01:51:02.717Z,68.94
2023-02-28T01:54:00.280Z,67.99
2023-02-28T01:56:53.123Z,67.27
2023-02-28T02:00:10.693Z,67.46
2023-02-28T02:03:05.732Z,66.98
2023-02-28T02:05:51.318Z,67.12
2023-02-28T02:08:37.752Z,68.88
2023-02-28T02:11:25.727Z,68.35
2023-02-28T02:14:38.463Z,68.87
2023-02-28T02:17:37.733Z,68.04
2023-02-28T02:20:41.236Z,68.69
2023-02-28T02:23:45.168Z,67.83
2023-02-28T02:26:36.423Z,68.00
2023-02-28T02:29:55.414Z,69.01
2023-02-28T02:33:11.093Z,68.93
2023-02-28T02:36:15.124Z,68.53
2023-02-28T02:39:03.582Z,68.85
2023-02-28T02:41:54.768Z,68.51
2023-02-28T02:44:53.338Z,67.88
2023-02-28T02:47:40.207Z,68.14
2023-02-28T02:50:30.815Z,67.69
2023-02-28T02:53:22.689Z,68.24
2023-02-28T02:56:09.264Z,68.16
2023-02-28T02:58:59.642Z,67.63
2023-02-28T03:01:45.526Z,66.29
2023-02-28T03:04:41.625Z,66.22
2023-02-28T03:07:27.894Z,66.24
2023-02-28T03:10:28.702Z,65.84
2023-02-28T03:13:50.161Z,66.05
2023-02-28T03:16:50.575Z,64.94
2023-02-28T03:19:45.860Z,65.47
2023-02-28T03:22:59.030Z,65.18
2023-02-28T03:26:05.572Z,64.42
2023-02-28T03:29:23.170Z,65.33
2023-02-28T03:32:36.267Z,65.87
2023-02-28T03:35:25.827Z,64.84
2023-02-28T03:38:35.318Z,64.90
2023-02-28T03:41:24.854Z,65.66
2023-02-28T03:44:16.565Z,64.20
2023-02-28T03:47:09.495Z,64.60
2023-02-28T03:50:16.203Z,65.94
2023-02-28T03:53:11.744Z,64.17
2023-02-28T03:56:35.224Z,63.15
2023-02-28T03:59:51.694Z,63.81
2023-02-28T04:02:37.015Z,62.34
2023-02-28T04:05:23.351Z,63.98
2023-02-28T04:08:09.226Z,64.56
2023-02-28T04:11:02.566Z,63.88
2023-02-28T04:13:48.003Z,61.04
2023-02-28T04:16:35.920Z,61.68
2023-02-28T04:19:21.524Z,62.81
2023-02-28T04:22:06.784Z,64.55
2023-02-28T04:24:52.656Z,64.19
2023-02-28T04:27:38.013Z,64.27
2023-02-28T04:30:23.408Z,61.93
2023-02-28T04:33:08.923Z,61.38
2023-02-28T04:36:06.130Z,62.24
2023-02-28T04:38:51.407Z,61.93
2023-02-28T04:41:36.720Z,60.42
2023-02-28T04:44:23.098Z,60.57
2023-02-28T04:47:08.437Z,60.20
2023-02-28T04:49:53.763Z,58.25
2023-02-28T04:52:39.048Z,60.08
2023-02-28T04:55:24.425Z,60.80
2023-02-28T04:58:10.093Z,57.83
2023-02-28T05:01:03.525Z,58.69
2023-02-28T05:03:50.010Z,59.96
2023-02-28T05:06:35.632Z,58.24
2023-02-28T05:09:20.971Z,59.79
2023-02-28T05:12:06.574Z,62.37
2023-02-28T05:14:51.754Z,62.94
2023-02-28T05:17:36.944Z,64.36
2023-02-28T05:20:22.300Z,65.16
2023-02-28T05:23:09.099Z,65.95
2023-02-28T05:25:54.681Z,67.30
2023-02-28T05:28:40.094Z,67.15
2023-02-28T05:31:25.384Z,67.68
2023-02-28T05:34:10.512Z,68.04
2023-02-28T05:36:55.897Z,67.83
2023-02-28T05:39:41.175Z,68.12
2023-02-28T05:42:26.666Z,68.51
2023-02-28T05:45:15.739Z,68.07
2023-02-28T05:48:01.314Z,67.17
2023-02-28T05:50:46.954Z,67.45
2023-02-28T05:53:32.840Z,67.72
2023-02-28T05:56:18.121Z,66.36
2023-02-28T05:59:03.368Z,66.23
2023-02-28T06:01:49.031Z,66.74
2023-02-28T06:04:34.643Z,66.34
2023-02-28T06:07:19.866Z,66.79
2023-02-28T06:10:05.930Z,67.42
2023-02-28T06:12:51.485Z,67.59
2023-02-28T06:15:36.991Z,67.82
2023-02-28T06:18:22.686Z,67.57
2023-02-28T06:21:08.025Z,68.15
2023-02-28T06:23:55.066Z,66.98
2023-02-28T06:26:40.669Z,67.53
2023-02-28T06:29:26.560Z,67.21
2023-02-28T06:32:11.897Z,67.41
2023-02-28T06:34:57.134Z,67.42
2023-02-28T06:37:42.592Z,66.27
2023-02-28T06:40:28.287Z,65.48
2023-02-28T06:43:13.694Z,64.60
2023-02-28T06:46:01.222Z,64.25
2023-02-28T06:48:46.701Z,65.63
2023-02-28T06:51:31.886Z,65.50
2023-02-28T06:54:17.329Z,65.44
2023-02-28T06:57:03.369Z,64.89
2023-02-28T06:59:50.266Z,63.59
2023-02-28T07:02:36.681Z,63.32
2023-02-28T07:05:21.761Z,61.40
2023-02-28T07:08:07.817Z,59.88
2023-02-28T07:10:56.946Z,58.88
2023-02-28T07:13:42.401Z,58.92
2023-02-28T07:16:27.796Z,59.13
2023-02-28T07:19:13.021Z,61.29
2023-02-28T07:21:58.135Z,62.02
2023-02-28T07:24:43.822Z,62.59
2023-02-28T07:27:29.250Z,63.00
2023-02-28T07:30:14.819Z,63.15
2023-02-28T07:32:59.794Z,64.45
2023-02-28T07:35:45.795Z,65.17
2023-02-28T07:38:32.065Z,63.73
2023-02-28T07:41:19.494Z,63.10
2023-02-28T07:44:04.748Z,64.08
2023-02-28T07:46:50.131Z,64.42
2023-02-28T07:49:39.797Z,65.57
2023-02-28T07:52:25.530Z,64.54
2023-02-28T07:55:13.526Z,63.31
2023-02-28T07:57:59.291Z,63.65
2023-02-28T08:00:44.594Z,64.96
2023-02-28T08:03:30.130Z,64.61
2023-02-28T08:06:21.603Z,64.33
2023-02-28T08:09:06.734Z,63.42
2023-02-28T08:11:51.997Z,63.38
2023-02-28T08:14:38.451Z,63.58
2023-02-28T08:17:24.135Z,62.35
2023-02-28T08:20:10.282Z,62.14
2023-02-28T08:22:55.481Z,62.62
2023-02-28T08:25:41.292Z,60.80
2023-02-28T08:28:27.543Z,61.12
2023-02-28T08:31:15.975Z,59.33
2023-02-28T08:34:01.368Z,58.24
2023-02-28T08:36:46.471Z,55.75
2023-02-28T08:39:35.465Z,58.32
2023-02-28T08:42:21.089Z,59.03
2023-02-28T08:45:07.019Z,59.11
2023-02-28T08:47:52.334Z,59.43
2023-02-28T08:50:37.489Z,61.00
2023-02-28T08:53:22.843Z,56.60
2023-02-28T08:56:12.624Z,59.50
2023-02-28T08:58:58.892Z,57.51
2023-02-28T09:01:44.288Z,58.92
2023-02-28T09:04:29.873Z,57.89
2023-02-28T09:07:15.291Z,57.92
2023-02-28T09:10:00.519Z,56.64
2023-02-28T09:12:45.975Z,56.45
2023-02-28T09:15:31.428Z,57.03
2023-02-28T09:18:17.639Z,55.70
2023-02-28T09:21:05.586Z,55.13
2023-02-28T09:23:51.736Z,54.44
2023-02-28T09:26:42.786Z,55.58
2023-02-28T09:29:34.372Z,54.02
2023-02-28T09:32:19.734Z,56.00
2023-02-28T09:35:05.714Z,56.73
2023-02-28T09:37:52.302Z,54.53
2023-02-28T09:41:16.672Z,53.76
2023-02-28T09:44:05.388Z,56.03
2023-02-28T09:46:56.869Z,51.77
2023-02-28T09:49:47.071Z,52.43
2023-02-28T09:52:33.555Z,52.09
2023-02-28T09:55:46.576Z,54.11
2023-02-28T09:58:48.374Z,53.95
2023-02-28T10:02:04.944Z,53.82
2023-02-28T10:04:58.969Z,52.53
2023-02-28T10:08:03.115Z,52.52
2023-02-28T10:10:52.427Z,55.23
2023-02-28T10:14:04.904Z,55.44
2023-02-28T10:16:54.129Z,53.99
2023-02-28T10:19:59.913Z,53.04
2023-02-28T10:22:59.076Z,53.85
2023-02-28T10:25:51.032Z,52.69
2023-02-28T10:28:36.830Z,53.44
2023-02-28T10:31:23.089Z,51.32
2023-02-28T10:34:13.702Z,49.33
2023-02-28T10:37:00.207Z,49.89
2023-02-28T10:39:48.298Z,50.28
2023-02-28T10:42:33.973Z,51.30
2023-02-28T10:45:19.671Z,52.84
2023-02-28T10:48:25.373Z,52.52
2023-02-28T10:51:23.282Z,52.13
2023-02-28T10:54:30.186Z,51.71
2023-02-28T10:57:21.853Z,50.91
2023-02-28T11:00:23.970Z,52.36
2023-02-28T11:03:26.107Z,50.26
2023-02-28T11:06:25.749Z,53.58
2023-02-28T11:09:26.212Z,53.11
2023-02-28T11:12:46.938Z,53.14
2023-02-28T11:15:36.611Z,53.65
2023-02-28T11:18:55.277Z,52.75
2023-02-28T11:21:48.941Z,50.93
2023-02-28T11:24:38.069Z,50.83
2023-02-28T11:27:32.745Z,54.01
2023-02-28T11:30:27.421Z,53.15
2023-02-28T11:33:28.145Z,54.57
2023-02-28T11:36:29.290Z,55.32
2023-02-28T11:39:16.387Z,51.81
2023-02-28T11:42:25.054Z,55.23
2023-02-28T11:45:23.895Z,51.98
2023-02-28T11:48:24.310Z,54.45
2023-02-28T11:51:22.749Z,55.86
2023-02-28T11:54:36.351Z,52.68
2023-02-28T11:57:30.881Z,52.42
2023-02-28T12:00:39.308Z,53.27
2023-02-28T12:03:37.074Z,54.29
2023-02-28T12:06:39.887Z,53.97
2023-02-28T12:09:39.919Z,53.04
2023-02-28T12:12:46.611Z,53.96
2023-02-28T12:15:50.098Z,52.63
2023-02-28T12:18:35.474Z,53.40
2023-02-28T12:21:39.526Z,53.12
2023-02-28T12:25:09.496Z,54.60
2023-02-28T12:27:55.556Z,52.84
2023-02-28T12:30:52.038Z,55.23
2023-02-28T12:33:43.101Z,54.30
2023-02-28T12:36:29.005Z,51.76
2023-02-28T12:39:23.938Z,53.45
2023-02-28T12:42:29.309Z,56.08
2023-02-28T12:45:21.007Z,54.95
2023-02-28T12:48:11.775Z,54.50
2023-02-28T12:50:57.904Z,53.46
2023-02-28T12:53:49.674Z,53.55
2023-02-28T12:56:48.732Z,54.96
2023-02-28T12:59:52.058Z,53.69
2023-02-28T13:03:02.235Z,53.65
2023-02-28T13:06:09.931Z,54.37
2023-02-28T13:09:24.883Z,53.21
2023-02-28T13:12:15.119Z,53.08
2023-02-28T13:15:06.775Z,54.45
2023-02-28T13:17:54.596Z,52.41
2023-02-28T13:20:49.304Z,53.74
2023-02-28T13:23:40.454Z,52.86
2023-02-28T13:26:31.975Z,54.15
2023-02-28T13:29:17.542Z,54.81
2023-02-28T13:32:09.012Z,55.72
2023-02-28T13:34:54.478Z,53.77
2023-02-28T13:37:45.217Z,55.54
2023-02-28T13:40:35.123Z,54.39
2023-02-28T13:43:27.899Z,55.26
2023-02-28T13:46:16.571Z,56.12
2023-02-28T13:49:23.893Z,53.51
2023-02-28T13:52:09.295Z,54.74
2023-02-28T13:55:17.782Z,53.87
2023-02-28T13:58:17.972Z,55.50
2023-02-28T14:01:27.002Z,53.87
2023-02-28T14:04:32.466Z,54.44
2023-02-28T14:07:28.203Z,54.12
2023-02-28T14:10:24.933Z,54.65
2023-02-28T14:13:31.932Z,55.17
2023-02-28T14:16:22.565Z,56.08
2023-02-28T14:19:25.415Z,54.30
2023-02-28T14:22:45.249Z,56.21
2023-02-28T14:25:33.814Z,55.40
2023-02-28T14:28:40.980Z,53.50
2023-02-28T14:31:41.578Z,54.29
2023-02-28T14:34:45.984Z,54.21
2023-02-28T14:37:38.233Z,52.98
2023-02-28T14:40:35.597Z,51.95
2023-02-28T14:43:26.629Z,52.40
2023-02-28T14:46:14.579Z,52.77
2023-02-28T14:48:59.955Z,55.89
2023-02-28T14:51:45.102Z,55.19
2023-02-28T14:54:30.713Z,55.75
2023-02-28T14:57:40.058Z,55.16
2023-02-28T15:00:32.583Z,54.78
2023-02-28T15:03:40.467Z,54.68
2023-02-28T15:06:26.750Z,54.70
2023-02-28T15:09:19.149Z,56.11
2023-02-28T15:12:04.957Z,54.45
2023-02-28T15:14:52.267Z,56.08
2023-02-28T15:17:37.807Z,55.92
2023-02-28T15:20:24.705Z,56.37
2023-02-28T15:23:11.786Z,56.20
2023-02-28T15:25:58.219Z,54.85
2023-02-28T15:28:44.801Z,55.00
2023-02-28T15:31:50.251Z,55.07
2023-02-28T15:34:43.328Z,56.35
2023-02-28T15:37:48.125Z,54.76
2023-02-28T15:40:39.684Z,55.19
2023-02-28T15:43:24.973Z,56.62
2023-02-28T15:46:12.963Z,56.70
2023-02-28T15:48:58.746Z,56.36
2023-02-28T15:51:44.301Z,56.45
2023-02-28T15:54:36.446Z,56.07
2023-02-28T15:57:25.172Z,57.73
2023-02-28T16:00:14.864Z,57.15
2023-02-28T16:03:00.489Z,57.73
2023-02-28T16:05:46.426Z,57.21
2023-02-28T16:08:31.543Z,57.01
2023-02-28T16:11:17.204Z,56.27
2023-02-28T16:14:02.327Z,57.32
2023-02-28T16:16:51.661Z,57.82
2023-02-28T16:19:37.165Z,56.82
2023-02-28T16:22:23.122Z,56.99
2023-02-28T16:25:12.260Z,56.88
2023-02-28T16:27:58.123Z,57.42
2023-02-28T16:30:43.899Z,56.89
2023-02-28T16:33:30.584Z,56.92
2023-02-28T16:36:18.791Z,57.48
2023-02-28T16:39:06.058Z,58.09
2023-02-28T16:41:52.982Z,58.90
2023-02-28T16:44:38.345Z,58.74
2023-02-28T16:47:23.636Z,59.03
2023-02-28T16:50:26.932Z,59.16
2023-02-28T16:53:12.215Z,58.83
2023-02-28T16:55:57.605Z,59.38
2023-02-28T16:58:43.329Z,60.15
2023-02-28T17:01:29.693Z,60.14
2023-02-28T17:04:15.260Z,59.96
2023-02-28T17:07:00.561Z,60.09
2023-02-28T17:09:46.803Z,60.54
2023-02-28T17:12:32.850Z,60.47
2023-02-28T17:15:20.226Z,60.07
2023-02-28T17:18:06.772Z,60.29
2023-02-28T17:20:51.975Z,60.85
2023-02-28T17:23:37.308Z,60.42
2023-02-28T17:26:23.599Z,60.88
2023-02-28T17:29:21.266Z,61.42
2023-02-28T17:32:17.206Z,61.80
2023-02-28T17:35:03.271Z,61.78
2023-02-28T17:37:48.892Z,61.18
2023-02-28T17:40:34.742Z,61.34
2023-02-28T17:43:20.227Z,60.81
2023-02-28T17:46:07.040Z,61.50
2023-02-28T17:48:55.178Z,61.93
2023-02-28T17:51:40.426Z,62.84
2023-02-28T17:54:26.060Z,62.82
2023-02-28T17:57:17.632Z,62.60
2023-02-28T18:00:04.321Z,62.70
2023-02-28T18:02:56.645Z,62.46
2023-02-28T18:05:42.045Z,62.48
2023-02-28T18:08:27.645Z,62.58
2023-02-28T18:11:13.476Z,62.79
2023-02-28T18:13:58.998Z,62.84
2023-02-28T18:16:45.600Z,62.58
2023-02-28T18:19:30.893Z,62.94
2023-02-28T18:22:16.441Z,63.54
2023-02-28T18:25:02.053Z,62.83
2023-02-28T18:27:47.221Z,63.31
2023-02-28T18:30:36.746Z,64.05
2023-02-28T18:33:21.888Z,64.20
2023-02-28T18:36:07.570Z,64.82
2023-02-28T18:38:53.915Z,64.82
2023-02-28T18:41:39.910Z,65.12
2023-02-28T18:44:25.520Z,65.37
2023-02-28T18:47:10.729Z,65.29
2023-02-28T18:49:56.030Z,65.82
2023-02-28T18:52:41.547Z,65.63
2023-02-28T18:55:27.999Z,66.34
2023-02-28T18:58:13.593Z,66.54
2023-02-28T19:01:00.254Z,66.72
2023-02-28T19:03:46.986Z,66.47
2023-02-28T19:06:35.259Z,67.16
2023-02-28T19:09:20.922Z,67.07
2023-02-28T19:12:07.474Z,67.33
2023-02-28T19:14:54.241Z,67.53
2023-02-28T19:17:39.599Z,67.40
2023-02-28T19:20:25.238Z,67.88
2023-02-28T19:23:10.385Z,68.14
2023-02-28T19:25:55.722Z,67.90
2023-02-28T19:28:41.426Z,67.72
2023-02-28T19:31:27.089Z,67.74
2023-02-28T19:34:12.747Z,67.65
2023-02-28T19:36:58.286Z,68.51
2023-02-28T19:39:45.100Z,68.20
2023-02-28T19:42:30.474Z,67.78
2023-02-28T19:45:15.614Z,68.11
2023-02-28T19:48:00.904Z,67.88
2023-02-28T19:50:46.297Z,68.76
2023-02-28T19:53:32.795Z,69.01
2023-02-28T19:56:18.100Z,68.60
2023-02-28T19:59:05.009Z,68.91
2023-02-28T20:01:52.525Z,69.45
2023-02-28T20:04:37.962Z,68.96
2023-02-28T20:07:23.433Z,68.21
2023-02-28T20:10:10.005Z,68.52
2023-02-28T20:12:55.541Z,68.86
2023-02-28T20:15:40.904Z,68.59
2023-02-28T20:18:26.514Z,69.65
2023-02-28T20:21:13.002Z,68.71
2023-02-28T20:23:58.177Z,68.47
2023-02-28T20:26:44.110Z,68.54
2023-02-28T20:29:29.949Z,68.01
2023-02-28T20:32:15.634Z,68.11
2023-02-28T20:35:00.858Z,68.66
2023-02-28T20:37:46.152Z,68.61
2023-02-28T20:40:32.123Z,68.39
2023-02-28T20:43:17.557Z,68.06
2023-02-28T20:46:03.490Z,68.41
2023-02-28T20:48:48.869Z,68.00
2023-02-28T20:51:34.110Z,67.43
2023-02-28T20:54:19.664Z,66.94
2023-02-28T20:57:05.062Z,67.25
2023-02-28T20:59:50.470Z,67.21
2023-02-28T21:02:37.112Z,66.15
2023-02-28T21:05:22.232Z,66.13
2023-02-28T21:08:07.568Z,66.52
2023-02-28T21:10:53.075Z,65.84
2023-02-28T21:13:38.524Z,66.05
2023-02-28T21:16:26.107Z,65.52
2023-02-28T21:19:12.216Z,65.47
2023-02-28T21:21:57.963Z,65.73
2023-02-28T21:24:43.166Z,65.61
2023-02-28T21:27:28.876Z,65.82
2023-02-28T21:30:14.580Z,65.59
2023-02-28T21:32:59.872Z,66.05
2023-02-28T21:35:45.392Z,66.79
2023-02-28T21:38:30.822Z,66.70
2023-02-28T21:41:19.441Z,67.50
2023-02-28T21:44:05.491Z,67.33
2023-02-28T21:46:52.297Z,67.17
2023-02-28T21:49:37.923Z,66.86
2023-02-28T21:52:23.259Z,66.74
2023-02-28T21:55:08.983Z,66.62
2023-02-28T21:57:54.358Z,65.83
2023-02-28T22:00:40.411Z,65.05
2023-02-28T22:03:27.005Z,65.31
2023-02-28T22:06:18.373Z,66.51
2023-02-28T22:09:06.161Z,66.64
2023-02-28T22:11:51.516Z,66.77
2023-02-28T22:14:39.382Z,66.89
2023-02-28T22:17:25.029Z,66.65
2023-02-28T22:20:11.052Z,67.20
2023-02-28T22:22:56.515Z,66.58
2023-02-28T22:25:41.999Z,67.27
2023-02-28T22:28:28.854Z,66.73
2023-02-28T22:31:19.102Z,66.92
2023-02-28T22:34:08.488Z,66.08
2023-02-28T22:36:53.925Z,65.47
2023-02-28T22:39:39.429Z,65.65
2023-02-28T22:42:24.808Z,65.49
2023-02-28T22:45:10.564Z,65.38
2023-02-28T22:47:55.968Z,65.38
2023-02-28T22:50:41.804Z,65.18
2023-02-28T22:53:27.007Z,65.09
2023-02-28T22:56:14.260Z,65.15
2023-02-28T22:59:00.994Z,65.03
2023-02-28T23:01:46.405Z,64.95
2023-02-28T23:04:31.824Z,65.24
2023-02-28T23:07:17.160Z,64.96
2023-02-28T23:10:14.095Z,64.81
2023-02-28T23:12:59.569Z,65.01
2023-02-28T23:15:45.504Z,64.84
2023-02-28T23:18:31.411Z,65.16
2023-02-28T23:21:16.528Z,65.47
2023-02-28T23:24:04.832Z,65.64
2023-02-28T23:26:52.672Z,65.76
2023-02-28T23:29:38.042Z,65.75
2023-02-28T23:32:23.550Z,66.17
2023-02-28T23:35:10.362Z,66.76
2023-02-28T23:37:56.605Z,66.80
2023-02-28T23:40:42.001Z,66.19
2023-02-28T23:43:28.394Z,65.73
2023-02-28T23:46:15.247Z,66.54
2023-02-28T23:49:00.270Z,66.58
2023-02-28T23:51:46.186Z,65.59
2023-02-28T23:54:32.205Z,65.57
2023-02-28T23:57:17.682Z,64.79
